sensor_id;sensor_type;location;lat;lon;timestamp;temperature;humidity
31084;DHT22;36333;51.382;0.016;2022-09-28T00:01:22;7.00;99.90
31084;DHT22;36333;51.382;0.016;2022-09-28T00:03:52;7.00;99.90
31084;DHT22;36333;51.382;0.016;2022-09-28T00:06:22;7.20;99.90
31084;DHT22;36333;51.382;0.016;2022-09-28T00:08:51;6.70;99.90
31084;DHT22;36333;51.382;0.016;2022-09-28T00:11:20;7.00;99.90
31084;DHT22;36333;51.382;0.016;2022-09-28T00:13:49;6.90;99.90
31084;DHT22;36333;51.382;0.016;2022-09-28T00:16:26;7.00;99.90
31084;DHT22;36333;51.382;0.016;2022-09-28T00:18:54;6.80;99.90
31084;DHT22;36333;51.382;0.016;2022-09-28T00:21:24;6.60;99.90
31084;DHT22;36333;51.382;0.016;2022-09-28T00:23:53;7.10;99.90
31084;DHT22;36333;51.382;0.016;2022-09-28T00:31:54;7.20;99.90
31084;DHT22;36333;51.382;0.016;2022-09-28T00:34:45;6.90;99.90
31084;DHT22;36333;51.382;0.016;2022-09-28T00:37:13;6.90;99.90
31084;DHT22;36333;51.382;0.016;2022-09-28T00:39:41;7.10;99.90
31084;DHT22;36333;51.382;0.016;2022-09-28T00:42:21;6.60;99.90
31084;DHT22;36333;51.382;0.016;2022-09-28T00:44:56;6.80;99.90
31084;DHT22;36333;51.382;0.016;2022-09-28T00:47:31;7.20;99.90
31084;DHT22;36333;51.382;0.016;2022-09-28T00:55:45;6.70;99.90
31084;DHT22;36333;51.382;0.016;2022-09-28T00:58:19;7.00;99.90
31084;DHT22;36333;51.382;0.016;2022-09-28T01:00:48;6.80;99.90
31084;DHT22;36333;51.382;0.016;2022-09-28T01:03:15;6.70;99.90
31084;DHT22;36333;51.382;0.016;2022-09-28T01:05:44;6.70;99.90
31084;DHT22;36333;51.382;0.016;2022-09-28T01:08:13;7.40;99.90
31084;DHT22;36333;51.382;0.016;2022-09-28T01:10:42;7.20;99.90
31084;DHT22;36333;51.382;0.016;2022-09-28T01:13:12;6.70;99.90
31084;DHT22;36333;51.382;0.016;2022-09-28T01:18:52;4.60;99.90
31084;DHT22;36333;51.382;0.016;2022-09-28T01:21:17;7.80;99.90
31084;DHT22;36333;51.382;0.016;2022-09-28T01:27:41;6.60;99.90
31084;DHT22;36333;51.382;0.016;2022-09-28T01:30:07;6.60;99.90
31084;DHT22;36333;51.382;0.016;2022-09-28T01:35:10;6.60;99.90
31084;DHT22;36333;51.382;0.016;2022-09-28T01:37:49;6.50;99.90
31084;DHT22;36333;51.382;0.016;2022-09-28T01:40:21;6.60;99.90
31084;DHT22;36333;51.382;0.016;2022-09-28T01:43:00;6.50;99.90
31084;DHT22;36333;51.382;0.016;2022-09-28T01:45:32;6.50;99.90
31084;DHT22;36333;51.382;0.016;2022-09-28T01:48:04;6.80;99.90
31084;DHT22;36333;51.382;0.016;2022-09-28T01:50:36;6.40;99.90
31084;DHT22;36333;51.382;0.016;2022-09-28T01:55:52;6.40;99.90
31084;DHT22;36333;51.382;0.016;2022-09-28T01:58:48;8.90;99.90
31084;DHT22;36333;51.382;0.016;2022-09-28T02:01:26;6.40;99.90
31084;DHT22;36333;51.382;0.016;2022-09-28T02:04:02;6.40;99.90
31084;DHT22;36333;51.382;0.016;2022-09-28T02:06:45;6.40;99.90
31084;DHT22;36333;51.382;0.016;2022-09-28T02:09:20;6.40;99.90
31084;DHT22;36333;51.382;0.016;2022-09-28T02:11:55;6.50;99.90
31084;DHT22;36333;51.382;0.016;2022-09-28T02:14:26;6.50;99.90
31084;DHT22;36333;51.382;0.016;2022-09-28T02:16:56;6.50;99.90
31084;DHT22;36333;51.382;0.016;2022-09-28T02:19:27;7.50;99.90
31084;DHT22;36333;51.382;0.016;2022-09-28T02:22:06;6.50;99.90
31084;DHT22;36333;51.382;0.016;2022-09-28T02:24:45;6.50;99.90
31084;DHT22;36333;51.382;0.016;2022-09-28T02:30:04;6.50;99.90
31084;DHT22;36333;51.382;0.016;2022-09-28T02:32:35;6.40;99.90
31084;DHT22;36333;51.382;0.016;2022-09-28T02:35:13;6.50;99.90
31084;DHT22;36333;51.382;0.016;2022-09-28T02:37:42;6.30;99.90
31084;DHT22;36333;51.382;0.016;2022-09-28T02:40:17;6.30;99.90
31084;DHT22;36333;51.382;0.016;2022-09-28T02:43:08;6.30;99.90
31084;DHT22;36333;51.382;0.016;2022-09-28T03:00:07;6.20;99.90
31084;DHT22;36333;51.382;0.016;2022-09-28T03:05:38;6.20;99.90
31084;DHT22;36333;51.382;0.016;2022-09-28T03:08:24;6.10;99.90
31084;DHT22;36333;51.382;0.016;2022-09-28T03:11:03;6.10;99.90
31084;DHT22;36333;51.382;0.016;2022-09-28T03:13:33;6.80;99.90
31084;DHT22;36333;51.382;0.016;2022-09-28T03:16:14;6.20;99.90
31084;DHT22;36333;51.382;0.016;2022-09-28T03:18:44;6.10;99.90
31084;DHT22;36333;51.382;0.016;2022-09-28T03:21:13;6.10;99.90
31084;DHT22;36333;51.382;0.016;2022-09-28T03:23:41;6.10;99.90
31084;DHT22;36333;51.382;0.016;2022-09-28T03:26:13;7.20;99.90
31084;DHT22;36333;51.382;0.016;2022-09-28T03:28:41;6.10;99.90
31084;DHT22;36333;51.382;0.016;2022-09-28T03:31:15;6.00;99.90
31084;DHT22;36333;51.382;0.016;2022-09-28T03:33:43;6.00;99.90
31084;DHT22;36333;51.382;0.016;2022-09-28T03:36:10;5.90;99.90
31084;DHT22;36333;51.382;0.016;2022-09-28T03:38:38;6.40;99.90
31084;DHT22;36333;51.382;0.016;2022-09-28T03:41:06;7.80;99.90
31084;DHT22;36333;51.382;0.016;2022-09-28T03:43:36;7.90;99.90
31084;DHT22;36333;51.382;0.016;2022-09-28T03:46:04;6.70;99.90
31084;DHT22;36333;51.382;0.016;2022-09-28T03:48:39;5.70;99.90
31084;DHT22;36333;51.382;0.016;2022-09-28T03:51:10;8.30;99.90
31084;DHT22;36333;51.382;0.016;2022-09-28T03:53:38;5.90;99.90
31084;DHT22;36333;51.382;0.016;2022-09-28T03:56:08;6.40;99.90
31084;DHT22;36333;51.382;0.016;2022-09-28T03:58:38;5.80;99.90
31084;DHT22;36333;51.382;0.016;2022-09-28T04:01:09;5.80;99.90
31084;DHT22;36333;51.382;0.016;2022-09-28T04:03:45;5.80;99.90
31084;DHT22;36333;51.382;0.016;2022-09-28T04:06:13;5.80;99.90
31084;DHT22;36333;51.382;0.016;2022-09-28T04:08:41;5.80;99.90
31084;DHT22;36333;51.382;0.016;2022-09-28T04:11:10;5.80;99.90
31084;DHT22;36333;51.382;0.016;2022-09-28T04:13:38;5.80;99.90
31084;DHT22;36333;51.382;0.016;2022-09-28T04:16:09;6.60;99.90
31084;DHT22;36333;51.382;0.016;2022-09-28T04:18:38;6.90;99.90
31084;DHT22;36333;51.382;0.016;2022-09-28T04:21:44;5.70;99.90
31084;DHT22;36333;51.382;0.016;2022-09-28T04:24:14;5.80;99.90
31084;DHT22;36333;51.382;0.016;2022-09-28T04:26:41;6.20;99.90
31084;DHT22;36333;51.382;0.016;2022-09-28T04:29:11;6.20;99.90
31084;DHT22;36333;51.382;0.016;2022-09-28T04:31:54;5.70;99.90
31084;DHT22;36333;51.382;0.016;2022-09-28T04:34:29;5.70;99.90
31084;DHT22;36333;51.382;0.016;2022-09-28T04:37:02;5.80;99.90
31084;DHT22;36333;51.382;0.016;2022-09-28T04:39:29;5.80;99.90
31084;DHT22;36333;51.382;0.016;2022-09-28T04:41:57;5.90;99.90
31084;DHT22;36333;51.382;0.016;2022-09-28T04:44:26;7.30;99.90
31084;DHT22;36333;51.382;0.016;2022-09-28T04:47:01;5.80;99.90
31084;DHT22;36333;51.382;0.016;2022-09-28T04:49:31;6.40;99.90
31084;DHT22;36333;51.382;0.016;2022-09-28T04:52:07;7.80;99.90
31084;DHT22;36333;51.382;0.016;2022-09-28T04:54:35;5.80;99.90
31084;DHT22;36333;51.382;0.016;2022-09-28T04:57:02;6.30;99.90
31084;DHT22;36333;51.382;0.016;2022-09-28T04:59:32;5.70;99.90
31084;DHT22;36333;51.382;0.016;2022-09-28T05:02:00;6.20;99.90
31084;DHT22;36333;51.382;0.016;2022-09-28T05:04:46;6.00;99.90
31084;DHT22;36333;51.382;0.016;2022-09-28T05:07:13;5.70;99.90
31084;DHT22;36333;51.382;0.016;2022-09-28T05:09:41;8.00;99.90
31084;DHT22;36333;51.382;0.016;2022-09-28T05:12:08;5.70;99.90
31084;DHT22;36333;51.382;0.016;2022-09-28T05:14:36;5.70;99.90
31084;DHT22;36333;51.382;0.016;2022-09-28T05:17:05;5.60;99.90
31084;DHT22;36333;51.382;0.016;2022-09-28T05:19:47;6.20;99.90
31084;DHT22;36333;51.382;0.016;2022-09-28T05:22:15;5.70;99.90
31084;DHT22;36333;51.382;0.016;2022-09-28T05:24:45;7.30;99.90
31084;DHT22;36333;51.382;0.016;2022-09-28T05:27:14;6.30;99.90
31084;DHT22;36333;51.382;0.016;2022-09-28T05:29:44;5.50;99.90
31084;DHT22;36333;51.382;0.016;2022-09-28T05:32:42;5.50;99.90
31084;DHT22;36333;51.382;0.016;2022-09-28T05:35:18;5.50;99.90
31084;DHT22;36333;51.382;0.016;2022-09-28T05:37:47;5.50;99.90
31084;DHT22;36333;51.382;0.016;2022-09-28T05:40:15;5.50;99.90
31084;DHT22;36333;51.382;0.016;2022-09-28T05:42:43;5.50;99.90
31084;DHT22;36333;51.382;0.016;2022-09-28T05:45:12;5.50;99.90
31084;DHT22;36333;51.382;0.016;2022-09-28T05:47:43;5.50;99.90
31084;DHT22;36333;51.382;0.016;2022-09-28T05:50:15;5.50;99.90
31084;DHT22;36333;51.382;0.016;2022-09-28T05:52:42;5.50;99.90
31084;DHT22;36333;51.382;0.016;2022-09-28T05:55:10;5.40;99.90
31084;DHT22;36333;51.382;0.016;2022-09-28T05:57:38;5.40;99.90
31084;DHT22;36333;51.382;0.016;2022-09-28T06:00:07;5.80;99.90
31084;DHT22;36333;51.382;0.016;2022-09-28T06:03:01;5.40;99.90
31084;DHT22;36333;51.382;0.016;2022-09-28T06:05:35;5.30;99.90
31084;DHT22;36333;51.382;0.016;2022-09-28T06:08:05;6.00;99.90
31084;DHT22;36333;51.382;0.016;2022-09-28T06:10:34;7.50;99.90
31084;DHT22;36333;51.382;0.016;2022-09-28T06:13:02;5.50;99.90
31084;DHT22;36333;51.382;0.016;2022-09-28T06:15:34;5.40;99.90
31084;DHT22;36333;51.382;0.016;2022-09-28T06:18:09;6.70;99.90
31084;DHT22;36333;51.382;0.016;2022-09-28T06:21:02;5.40;99.90
31084;DHT22;36333;51.382;0.016;2022-09-28T06:23:33;5.50;99.90
31084;DHT22;36333;51.382;0.016;2022-09-28T06:26:00;5.60;99.90
31084;DHT22;36333;51.382;0.016;2022-09-28T06:28:29;5.60;99.90
31084;DHT22;36333;51.382;0.016;2022-09-28T06:30:59;5.70;99.90
31084;DHT22;36333;51.382;0.016;2022-09-28T06:33:27;5.70;99.90
31084;DHT22;36333;51.382;0.016;2022-09-28T06:35:57;5.80;99.90
31084;DHT22;36333;51.382;0.016;2022-09-28T06:38:25;5.80;99.90
31084;DHT22;36333;51.382;0.016;2022-09-28T06:40:53;5.80;99.90
31084;DHT22;36333;51.382;0.016;2022-09-28T06:43:20;7.20;99.90
31084;DHT22;36333;51.382;0.016;2022-09-28T06:46:08;5.80;99.90
31084;DHT22;36333;51.382;0.016;2022-09-28T06:48:55;5.90;99.90
31084;DHT22;36333;51.382;0.016;2022-09-28T06:51:48;5.90;99.90
31084;DHT22;36333;51.382;0.016;2022-09-28T06:54:36;6.00;99.90
31084;DHT22;36333;51.382;0.016;2022-09-28T06:57:27;6.00;99.90
31084;DHT22;36333;51.382;0.016;2022-09-28T06:59:55;6.10;99.90
31084;DHT22;36333;51.382;0.016;2022-09-28T07:02:22;6.00;99.90
31084;DHT22;36333;51.382;0.016;2022-09-28T07:05:22;6.10;99.90
31084;DHT22;36333;51.382;0.016;2022-09-28T07:08:03;6.10;99.90
31084;DHT22;36333;51.382;0.016;2022-09-28T07:10:41;6.20;99.90
31084;DHT22;36333;51.382;0.016;2022-09-28T07:13:42;6.30;99.90
31084;DHT22;36333;51.382;0.016;2022-09-28T07:16:20;6.50;99.90
31084;DHT22;36333;51.382;0.016;2022-09-28T07:18:56;6.50;99.90
31084;DHT22;36333;51.382;0.016;2022-09-28T07:21:24;7.60;99.90
31084;DHT22;36333;51.382;0.016;2022-09-28T07:24:00;6.60;99.90
31084;DHT22;36333;51.382;0.016;2022-09-28T07:26:46;6.60;99.90
31084;DHT22;36333;51.382;0.016;2022-09-28T07:29:31;6.70;99.90
31084;DHT22;36333;51.382;0.016;2022-09-28T07:32:31;8.40;99.90
31084;DHT22;36333;51.382;0.016;2022-09-28T07:35:33;6.80;99.90
31084;DHT22;36333;51.382;0.016;2022-09-28T07:38:04;6.80;99.90
31084;DHT22;36333;51.382;0.016;2022-09-28T07:40:33;6.90;99.90
31084;DHT22;36333;51.382;0.016;2022-09-28T07:43:21;7.80;99.90
31084;DHT22;36333;51.382;0.016;2022-09-28T07:45:52;7.00;99.90
31084;DHT22;36333;51.382;0.016;2022-09-28T07:48:23;7.00;99.90
31084;DHT22;36333;51.382;0.016;2022-09-28T07:51:10;7.60;99.90
31084;DHT22;36333;51.382;0.016;2022-09-28T07:53:39;7.30;99.90
31084;DHT22;36333;51.382;0.016;2022-09-28T07:56:26;7.20;99.90
31084;DHT22;36333;51.382;0.016;2022-09-28T07:59:02;7.20;99.90
31084;DHT22;36333;51.382;0.016;2022-09-28T08:01:39;9.20;99.90
31084;DHT22;36333;51.382;0.016;2022-09-28T08:04:09;7.40;99.90
31084;DHT22;36333;51.382;0.016;2022-09-28T08:06:40;7.50;99.90
31084;DHT22;36333;51.382;0.016;2022-09-28T08:09:09;7.50;99.90
31084;DHT22;36333;51.382;0.016;2022-09-28T08:12:07;7.50;99.90
31084;DHT22;36333;51.382;0.016;2022-09-28T08:14:51;7.70;99.90
31084;DHT22;36333;51.382;0.016;2022-09-28T08:17:34;7.70;99.90
31084;DHT22;36333;51.382;0.016;2022-09-28T08:20:06;7.70;99.90
31084;DHT22;36333;51.382;0.016;2022-09-28T08:22:53;7.80;99.90
31084;DHT22;36333;51.382;0.016;2022-09-28T08:25:21;9.30;99.90
31084;DHT22;36333;51.382;0.016;2022-09-28T08:27:48;7.90;99.90
31084;DHT22;36333;51.382;0.016;2022-09-28T08:30:16;8.00;99.90
31084;DHT22;36333;51.382;0.016;2022-09-28T08:32:51;8.00;99.90
31084;DHT22;36333;51.382;0.016;2022-09-28T08:35:39;8.10;99.90
31084;DHT22;36333;51.382;0.016;2022-09-28T08:38:29;8.10;99.90
31084;DHT22;36333;51.382;0.016;2022-09-28T08:46:34;8.20;99.90
31084;DHT22;36333;51.382;0.016;2022-09-28T08:49:42;8.30;99.90
31084;DHT22;36333;51.382;0.016;2022-09-28T08:52:32;8.40;99.90
31084;DHT22;36333;51.382;0.016;2022-09-28T08:55:29;8.50;99.90
31084;DHT22;36333;51.382;0.016;2022-09-28T08:58:16;8.60;99.90
31084;DHT22;36333;51.382;0.016;2022-09-28T09:00:46;8.80;99.90
31084;DHT22;36333;51.382;0.016;2022-09-28T09:03:24;10.20;99.90
31084;DHT22;36333;51.382;0.016;2022-09-28T09:06:32;9.00;99.90
31084;DHT22;36333;51.382;0.016;2022-09-28T09:23:56;9.70;99.90
31084;DHT22;36333;51.382;0.016;2022-09-28T09:32:15;10.20;99.90
31084;DHT22;36333;51.382;0.016;2022-09-28T09:46:58;10.60;99.90
31084;DHT22;36333;51.382;0.016;2022-09-28T09:52:44;10.90;99.90
31084;DHT22;36333;51.382;0.016;2022-09-28T09:58:28;11.20;99.90
31084;DHT22;36333;51.382;0.016;2022-09-28T10:01:13;11.30;99.90
31084;DHT22;36333;51.382;0.016;2022-09-28T10:04:02;11.30;99.90
31084;DHT22;36333;51.382;0.016;2022-09-28T10:06:34;11.30;99.90
31084;DHT22;36333;51.382;0.016;2022-09-28T10:09:15;11.40;99.90
31084;DHT22;36333;51.382;0.016;2022-09-28T10:11:46;11.60;99.90
31084;DHT22;36333;51.382;0.016;2022-09-28T10:14:22;11.70;99.90
31084;DHT22;36333;51.382;0.016;2022-09-28T10:17:01;11.80;99.90
31084;DHT22;36333;51.382;0.016;2022-09-28T10:19:49;11.80;99.90
31084;DHT22;36333;51.382;0.016;2022-09-28T10:22:34;11.90;99.90
31084;DHT22;36333;51.382;0.016;2022-09-28T10:25:11;11.80;99.90
31084;DHT22;36333;51.382;0.016;2022-09-28T10:27:42;11.90;99.90
31084;DHT22;36333;51.382;0.016;2022-09-28T10:32:44;12.10;99.90
31084;DHT22;36333;51.382;0.016;2022-09-28T10:35:34;12.20;99.90
31084;DHT22;36333;51.382;0.016;2022-09-28T10:38:16;12.40;99.90
31084;DHT22;36333;51.382;0.016;2022-09-28T10:41:10;12.30;99.90
31084;DHT22;36333;51.382;0.016;2022-09-28T10:43:54;12.30;99.90
31084;DHT22;36333;51.382;0.016;2022-09-28T10:47:01;12.20;99.90
31084;DHT22;36333;51.382;0.016;2022-09-28T10:49:42;12.10;99.90
31084;DHT22;36333;51.382;0.016;2022-09-28T10:52:40;12.00;99.90
31084;DHT22;36333;51.382;0.016;2022-09-28T10:55:32;12.00;99.90
31084;DHT22;36333;51.382;0.016;2022-09-28T10:58:00;12.10;99.90
31084;DHT22;36333;51.382;0.016;2022-09-28T11:00:44;12.30;99.90
31084;DHT22;36333;51.382;0.016;2022-09-28T11:03:27;12.50;99.90
31084;DHT22;36333;51.382;0.016;2022-09-28T11:06:04;12.80;99.90
31084;DHT22;36333;51.382;0.016;2022-09-28T11:08:38;13.10;99.90
31084;DHT22;36333;51.382;0.016;2022-09-28T11:11:13;13.20;99.90
31084;DHT22;36333;51.382;0.016;2022-09-28T11:13:45;13.30;99.90
31084;DHT22;36333;51.382;0.016;2022-09-28T11:18:50;13.30;99.90
31084;DHT22;36333;51.382;0.016;2022-09-28T11:21:29;13.30;99.90
31084;DHT22;36333;51.382;0.016;2022-09-28T11:26:51;13.20;99.90
31084;DHT22;36333;51.382;0.016;2022-09-28T11:29:29;13.30;99.90
31084;DHT22;36333;51.382;0.016;2022-09-28T11:32:17;13.40;99.90
31084;DHT22;36333;51.382;0.016;2022-09-28T11:35:03;13.60;99.90
31084;DHT22;36333;51.382;0.016;2022-09-28T11:37:44;13.70;99.90
31084;DHT22;36333;51.382;0.016;2022-09-28T11:48:46;13.80;99.90
31084;DHT22;36333;51.382;0.016;2022-09-28T11:51:24;13.90;99.90
31084;DHT22;36333;51.382;0.016;2022-09-28T11:54:11;12.50;99.90
31084;DHT22;36333;51.382;0.016;2022-09-28T11:56:43;14.20;99.90
31084;DHT22;36333;51.382;0.016;2022-09-28T11:59:34;14.40;99.90
31084;DHT22;36333;51.382;0.016;2022-09-28T12:02:16;14.50;99.90
31084;DHT22;36333;51.382;0.016;2022-09-28T12:04:57;14.70;99.90
31084;DHT22;36333;51.382;0.016;2022-09-28T12:11:08;14.90;99.90
31084;DHT22;36333;51.382;0.016;2022-09-28T12:14:05;15.00;99.90
31084;DHT22;36333;51.382;0.016;2022-09-28T12:16:44;15.10;99.90
31084;DHT22;36333;51.382;0.016;2022-09-28T12:19:41;15.10;99.90
31084;DHT22;36333;51.382;0.016;2022-09-28T12:22:18;15.10;98.70
31084;DHT22;36333;51.382;0.016;2022-09-28T12:24:52;15.10;99.90
31084;DHT22;36333;51.382;0.016;2022-09-28T12:27:48;15.10;99.90
31084;DHT22;36333;51.382;0.016;2022-09-28T12:30:21;15.00;98.70
31084;DHT22;36333;51.382;0.016;2022-09-28T12:33:03;15.00;99.30
31084;DHT22;36333;51.382;0.016;2022-09-28T12:43:27;16.50;99.90
31084;DHT22;36333;51.382;0.016;2022-09-28T12:46:28;15.30;98.80
31084;DHT22;36333;51.382;0.016;2022-09-28T12:49:17;15.50;97.50
31084;DHT22;36333;51.382;0.016;2022-09-28T12:57:39;14.90;97.50
31084;DHT22;36333;51.382;0.016;2022-09-28T13:00:15;15.20;96.50
31084;DHT22;36333;51.382;0.016;2022-09-28T13:02:59;15.20;96.30
31084;DHT22;36333;51.382;0.016;2022-09-28T13:08:06;15.30;97.60
31084;DHT22;36333;51.382;0.016;2022-09-28T13:10:43;15.40;97.60
31084;DHT22;36333;51.382;0.016;2022-09-28T13:21:27;15.70;96.90
31084;DHT22;36333;51.382;0.016;2022-09-28T13:24:01;15.70;95.80
31084;DHT22;36333;51.382;0.016;2022-09-28T13:26:52;15.50;96.80
31084;DHT22;36333;51.382;0.016;2022-09-28T13:29:23;15.80;97.00
31084;DHT22;36333;51.382;0.016;2022-09-28T13:31:55;15.70;95.80
31084;DHT22;36333;51.382;0.016;2022-09-28T13:34:29;15.70;96.00
31084;DHT22;36333;51.382;0.016;2022-09-28T13:54:11;15.80;95.80
31084;DHT22;36333;51.382;0.016;2022-09-28T13:56:52;15.80;95.60
31084;DHT22;36333;51.382;0.016;2022-09-28T13:59:26;15.70;95.70
31084;DHT22;36333;51.382;0.016;2022-09-28T14:02:08;15.50;95.90
31084;DHT22;36333;51.382;0.016;2022-09-28T14:04:59;15.50;96.00
31084;DHT22;36333;51.382;0.016;2022-09-28T14:10:20;15.30;95.30
31084;DHT22;36333;51.382;0.016;2022-09-28T14:12:52;15.10;94.80
31084;DHT22;36333;51.382;0.016;2022-09-28T14:18:11;15.10;95.80
31084;DHT22;36333;51.382;0.016;2022-09-28T14:21:01;15.10;95.10
31084;DHT22;36333;51.382;0.016;2022-09-28T14:29:32;15.10;93.70
31084;DHT22;36333;51.382;0.016;2022-09-28T14:32:04;15.40;94.70
31084;DHT22;36333;51.382;0.016;2022-09-28T14:34:58;15.10;94.50
31084;DHT22;36333;51.382;0.016;2022-09-28T14:37:36;15.10;94.70
31084;DHT22;36333;51.382;0.016;2022-09-28T14:59:14;16.00;92.00
31084;DHT22;36333;51.382;0.016;2022-09-28T15:01:52;15.90;90.90
31084;DHT22;36333;51.382;0.016;2022-09-28T15:04:22;15.90;91.70
31084;DHT22;36333;51.382;0.016;2022-09-28T15:06:52;16.00;91.70
31084;DHT22;36333;51.382;0.016;2022-09-28T15:09:37;15.80;91.60
31084;DHT22;36333;51.382;0.016;2022-09-28T15:12:26;15.80;91.40
31084;DHT22;36333;51.382;0.016;2022-09-28T15:15:06;15.90;91.20
31084;DHT22;36333;51.382;0.016;2022-09-28T15:17:49;15.80;91.00
31084;DHT22;36333;51.382;0.016;2022-09-28T15:20:23;15.80;91.20
31084;DHT22;36333;51.382;0.016;2022-09-28T15:22:56;15.70;90.90
31084;DHT22;36333;51.382;0.016;2022-09-28T15:25:29;15.60;90.60
31084;DHT22;36333;51.382;0.016;2022-09-28T15:28:00;15.50;90.20
31084;DHT22;36333;51.382;0.016;2022-09-28T15:30:34;15.30;90.70
31084;DHT22;36333;51.382;0.016;2022-09-28T15:33:03;15.30;90.90
31084;DHT22;36333;51.382;0.016;2022-09-28T15:35:59;15.10;90.90
31084;DHT22;36333;51.382;0.016;2022-09-28T15:38:28;14.90;90.70
31084;DHT22;36333;51.382;0.016;2022-09-28T15:41:01;14.60;91.00
31084;DHT22;36333;51.382;0.016;2022-09-28T15:43:32;14.30;91.20
31084;DHT22;36333;51.382;0.016;2022-09-28T15:46:18;14.10;92.30
31084;DHT22;36333;51.382;0.016;2022-09-28T15:51:22;13.50;91.80
31084;DHT22;36333;51.382;0.016;2022-09-28T15:53:54;13.50;92.00
31084;DHT22;36333;51.382;0.016;2022-09-28T15:56:25;13.40;92.40
31084;DHT22;36333;51.382;0.016;2022-09-28T16:01:42;13.00;93.00
31084;DHT22;36333;51.382;0.016;2022-09-28T16:12:25;13.30;92.20
31084;DHT22;36333;51.382;0.016;2022-09-28T16:15:13;13.30;92.10
31084;DHT22;36333;51.382;0.016;2022-09-28T16:17:55;13.20;92.10
31084;DHT22;36333;51.382;0.016;2022-09-28T16:22:58;13.10;92.30
31084;DHT22;36333;51.382;0.016;2022-09-28T16:25:34;13.00;92.60
31084;DHT22;36333;51.382;0.016;2022-09-28T16:28:04;13.30;93.30
31084;DHT22;36333;51.382;0.016;2022-09-28T16:30:33;12.70;93.20
31084;DHT22;36333;51.382;0.016;2022-09-28T16:33:24;12.80;92.80
31084;DHT22;36333;51.382;0.016;2022-09-28T16:38:20;12.60;92.80
31084;DHT22;36333;51.382;0.016;2022-09-28T16:40:49;12.60;93.30
31084;DHT22;36333;51.382;0.016;2022-09-28T16:43:28;12.80;94.00
31084;DHT22;36333;51.382;0.016;2022-09-28T16:45:58;12.40;93.20
31084;DHT22;36333;51.382;0.016;2022-09-28T16:48:29;12.40;93.40
31084;DHT22;36333;51.382;0.016;2022-09-28T16:50:58;12.00;94.00
31084;DHT22;36333;51.382;0.016;2022-09-28T16:53:26;12.40;94.50
31084;DHT22;36333;51.382;0.016;2022-09-28T16:58:40;12.00;94.60
31084;DHT22;36333;51.382;0.016;2022-09-28T17:01:09;12.10;93.80
31084;DHT22;36333;51.382;0.016;2022-09-28T17:06:10;12.00;93.90
31084;DHT22;36333;51.382;0.016;2022-09-28T17:08:38;11.70;94.90
31084;DHT22;36333;51.382;0.016;2022-09-28T17:11:11;12.30;95.50
31084;DHT22;36333;51.382;0.016;2022-09-28T17:13:46;12.00;95.60
31084;DHT22;36333;51.382;0.016;2022-09-28T17:16:17;11.90;95.70
31084;DHT22;36333;51.382;0.016;2022-09-28T17:18:45;11.00;95.70
31084;DHT22;36333;51.382;0.016;2022-09-28T17:21:17;11.20;95.90
31084;DHT22;36333;51.382;0.016;2022-09-28T17:23:46;11.30;94.90
31084;DHT22;36333;51.382;0.016;2022-09-28T17:26:23;11.30;95.10
31084;DHT22;36333;51.382;0.016;2022-09-28T17:28:57;11.40;96.30
31084;DHT22;36333;51.382;0.016;2022-09-28T17:31:25;11.30;96.30
31084;DHT22;36333;51.382;0.016;2022-09-28T17:33:53;11.10;95.50
31084;DHT22;36333;51.382;0.016;2022-09-28T17:36:21;10.70;97.00
31084;DHT22;36333;51.382;0.016;2022-09-28T17:38:48;10.60;97.20
31084;DHT22;36333;51.382;0.016;2022-09-28T17:41:19;10.80;96.30
31084;DHT22;36333;51.382;0.016;2022-09-28T17:43:48;10.30;97.50
31084;DHT22;36333;51.382;0.016;2022-09-28T17:46:26;10.60;96.90
31084;DHT22;36333;51.382;0.016;2022-09-28T17:48:56;10.40;97.20
31084;DHT22;36333;51.382;0.016;2022-09-28T17:51:30;10.30;98.40
31084;DHT22;36333;51.382;0.016;2022-09-28T17:53:59;10.30;97.60
31084;DHT22;36333;51.382;0.016;2022-09-28T17:56:28;10.20;99.00
31084;DHT22;36333;51.382;0.016;2022-09-28T17:59:04;9.80;99.30
31084;DHT22;36333;51.382;0.016;2022-09-28T18:01:38;9.80;98.50
31084;DHT22;36333;51.382;0.016;2022-09-28T18:04:08;9.80;98.70
31084;DHT22;36333;51.382;0.016;2022-09-28T18:06:45;9.70;98.90
31084;DHT22;36333;51.382;0.016;2022-09-28T18:09:13;9.30;99.90
31084;DHT22;36333;51.382;0.016;2022-09-28T18:11:43;9.60;99.60
31084;DHT22;36333;51.382;0.016;2022-09-28T18:14:11;9.40;99.90
31084;DHT22;36333;51.382;0.016;2022-09-28T18:19:07;9.40;99.90
31084;DHT22;36333;51.382;0.016;2022-09-28T18:21:34;9.40;99.90
31084;DHT22;36333;51.382;0.016;2022-09-28T18:24:02;9.40;99.90
31084;DHT22;36333;51.382;0.016;2022-09-28T18:26:30;9.70;99.90
31084;DHT22;36333;51.382;0.016;2022-09-28T18:28:57;9.50;99.90
31084;DHT22;36333;51.382;0.016;2022-09-28T18:31:24;9.20;99.90
31084;DHT22;36333;51.382;0.016;2022-09-28T18:33:58;9.10;99.90
31084;DHT22;36333;51.382;0.016;2022-09-28T18:36:31;8.90;99.90
31084;DHT22;36333;51.382;0.016;2022-09-28T18:39:00;9.40;99.90
31084;DHT22;36333;51.382;0.016;2022-09-28T18:41:28;8.90;99.90
31084;DHT22;36333;51.382;0.016;2022-09-28T18:46:28;8.80;99.90
31084;DHT22;36333;51.382;0.016;2022-09-28T18:48:56;8.90;99.90
31084;DHT22;36333;51.382;0.016;2022-09-28T18:51:23;8.40;99.90
31084;DHT22;36333;51.382;0.016;2022-09-28T18:53:51;9.20;99.90
31084;DHT22;36333;51.382;0.016;2022-09-28T18:58:49;8.90;99.90
31084;DHT22;36333;51.382;0.016;2022-09-28T19:01:21;8.60;99.90
31084;DHT22;36333;51.382;0.016;2022-09-28T19:04:04;8.50;99.90
31084;DHT22;36333;51.382;0.016;2022-09-28T19:06:33;8.40;99.90
31084;DHT22;36333;51.382;0.016;2022-09-28T19:11:31;9.20;99.90
31084;DHT22;36333;51.382;0.016;2022-09-28T19:16:28;8.30;99.90
31084;DHT22;36333;51.382;0.016;2022-09-28T19:18:57;8.30;99.90
31084;DHT22;36333;51.382;0.016;2022-09-28T19:21:25;8.40;99.90
31084;DHT22;36333;51.382;0.016;2022-09-28T19:26:22;8.20;99.90
31084;DHT22;36333;51.382;0.016;2022-09-28T19:28:50;8.40;99.90
31084;DHT22;36333;51.382;0.016;2022-09-28T19:33:46;8.00;99.90
31084;DHT22;36333;51.382;0.016;2022-09-28T19:36:15;8.10;99.90
31084;DHT22;36333;51.382;0.016;2022-09-28T19:38:44;8.00;99.90
31084;DHT22;36333;51.382;0.016;2022-09-28T19:41:16;8.10;99.90
31084;DHT22;36333;51.382;0.016;2022-09-28T19:44:14;7.90;99.90
31084;DHT22;36333;51.382;0.016;2022-09-28T19:46:46;8.00;99.90
31084;DHT22;36333;51.382;0.016;2022-09-28T19:49:15;7.90;99.90
31084;DHT22;36333;51.382;0.016;2022-09-28T19:51:47;8.20;99.90
31084;DHT22;36333;51.382;0.016;2022-09-28T19:54:35;7.80;99.90
31084;DHT22;36333;51.382;0.016;2022-09-28T19:59:35;7.70;99.90
31084;DHT22;36333;51.382;0.016;2022-09-28T20:02:06;7.80;99.90
31084;DHT22;36333;51.382;0.016;2022-09-28T20:04:34;7.70;99.90
31084;DHT22;36333;51.382;0.016;2022-09-28T20:09:31;7.60;99.90
31084;DHT22;36333;51.382;0.016;2022-09-28T20:11:59;7.20;99.90
31084;DHT22;36333;51.382;0.016;2022-09-28T20:14:27;7.50;99.90
31084;DHT22;36333;51.382;0.016;2022-09-28T20:17:02;9.80;99.90